Terminal Aerodrome Forecast
Issued by NWS

Home | Current Version | Previous Version | Text Only | Print | Product List | Glossary Off
Versions: 1 2 3 4 5 6 7 8 9 10 11 12 13 14 15 16 17 18 19 20

358
FTUS43 KMPX 151139
TAFRNH
TAF
KRNH 151139Z 1512/1612 30011KT P6SM OVC007
     FM151500 30015G23KT P6SM SCT007 OVC015
     FM152000 30017G25KT P6SM OVC020
     FM160600 33006KT P6SM OVC020=

USA.gov is the U.S. government's official web portal to all federal, state and local government web resources and services.